sensor_id;sensor_type;location;lat;lon;timestamp;P1;durP1;ratioP1;P2;durP2;ratioP2
31306;SDS011;17935;51.120;13.132;2023-03-25T00:01:13;10.05;;;5.78;;
31306;SDS011;17935;51.120;13.132;2023-03-25T00:03:40;11.93;;;5.03;;
31306;SDS011;17935;51.120;13.132;2023-03-25T00:06:06;15.75;;;5.53;;
31306;SDS011;17935;51.120;13.132;2023-03-25T00:08:32;15.98;;;5.22;;
31306;SDS011;17935;51.120;13.132;2023-03-25T00:10:59;7.60;;;4.65;;
31306;SDS011;17935;51.120;13.132;2023-03-25T00:13:25;8.57;;;4.95;;
31306;SDS011;17935;51.120;13.132;2023-03-25T00:15:52;9.75;;;4.68;;
31306;SDS011;17935;51.120;13.132;2023-03-25T00:18:22;7.32;;;4.10;;
31306;SDS011;17935;51.120;13.132;2023-03-25T00:20:48;8.90;;;5.45;;
31306;SDS011;17935;51.120;13.132;2023-03-25T00:23:15;8.15;;;4.63;;
31306;SDS011;17935;51.120;13.132;2023-03-25T00:25:41;13.55;;;4.65;;
31306;SDS011;17935;51.120;13.132;2023-03-25T00:28:08;13.88;;;4.90;;
31306;SDS011;17935;51.120;13.132;2023-03-25T00:30:36;12.05;;;4.65;;
31306;SDS011;17935;51.120;13.132;2023-03-25T00:33:02;8.32;;;4.70;;
31306;SDS011;17935;51.120;13.132;2023-03-25T00:35:28;10.30;;;4.00;;
31306;SDS011;17935;51.120;13.132;2023-03-25T00:37:54;10.43;;;4.68;;
31306;SDS011;17935;51.120;13.132;2023-03-25T00:40:27;10.55;;;6.35;;
31306;SDS011;17935;51.120;13.132;2023-03-25T00:42:54;14.57;;;4.55;;
31306;SDS011;17935;51.120;13.132;2023-03-25T00:45:20;10.73;;;5.03;;
31306;SDS011;17935;51.120;13.132;2023-03-25T00:47:46;9.85;;;4.07;;
31306;SDS011;17935;51.120;13.132;2023-03-25T00:50:12;16.17;;;4.57;;
31306;SDS011;17935;51.120;13.132;2023-03-25T00:52:38;10.98;;;4.63;;
31306;SDS011;17935;51.120;13.132;2023-03-25T00:55:05;10.05;;;4.15;;
31306;SDS011;17935;51.120;13.132;2023-03-25T00:57:31;8.32;;;3.90;;
31306;SDS011;17935;51.120;13.132;2023-03-25T00:59:57;8.65;;;3.83;;
31306;SDS011;17935;51.120;13.132;2023-03-25T01:02:23;10.45;;;3.33;;
31306;SDS011;17935;51.120;13.132;2023-03-25T01:04:49;7.63;;;4.05;;
31306;SDS011;17935;51.120;13.132;2023-03-25T01:07:18;10.00;;;3.88;;
31306;SDS011;17935;51.120;13.132;2023-03-25T01:09:44;8.73;;;3.80;;
31306;SDS011;17935;51.120;13.132;2023-03-25T01:12:11;9.88;;;4.57;;
31306;SDS011;17935;51.120;13.132;2023-03-25T01:14:37;7.95;;;3.65;;
31306;SDS011;17935;51.120;13.132;2023-03-25T01:17:03;10.18;;;3.55;;
31306;SDS011;17935;51.120;13.132;2023-03-25T01:19:29;6.95;;;3.40;;
31306;SDS011;17935;51.120;13.132;2023-03-25T01:21:55;8.50;;;3.35;;
31306;SDS011;17935;51.120;13.132;2023-03-25T01:24:21;12.68;;;3.70;;
31306;SDS011;17935;51.120;13.132;2023-03-25T01:26:47;7.60;;;3.88;;
31306;SDS011;17935;51.120;13.132;2023-03-25T01:29:15;6.20;;;2.90;;
31306;SDS011;17935;51.120;13.132;2023-03-25T01:31:41;7.93;;;3.65;;
31306;SDS011;17935;51.120;13.132;2023-03-25T01:34:07;8.43;;;4.07;;
31306;SDS011;17935;51.120;13.132;2023-03-25T01:36:33;13.93;;;4.68;;
31306;SDS011;17935;51.120;13.132;2023-03-25T01:39:00;9.18;;;4.22;;
31306;SDS011;17935;51.120;13.132;2023-03-25T01:41:27;10.00;;;4.25;;
31306;SDS011;17935;51.120;13.132;2023-03-25T01:45:02;12.48;;;4.45;;
31306;SDS011;17935;51.120;13.132;2023-03-25T01:46:55;12.27;;;4.65;;
31306;SDS011;17935;51.120;13.132;2023-03-25T01:49:26;6.60;;;3.95;;
31306;SDS011;17935;51.120;13.132;2023-03-25T01:51:55;12.60;;;4.78;;
31306;SDS011;17935;51.120;13.132;2023-03-25T01:54:21;10.68;;;4.97;;
31306;SDS011;17935;51.120;13.132;2023-03-25T01:56:48;10.25;;;4.35;;
31306;SDS011;17935;51.120;13.132;2023-03-25T01:59:15;6.70;;;4.45;;
31306;SDS011;17935;51.120;13.132;2023-03-25T02:01:42;8.38;;;5.85;;
31306;SDS011;17935;51.120;13.132;2023-03-25T02:04:09;9.25;;;4.32;;
31306;SDS011;17935;51.120;13.132;2023-03-25T02:06:43;10.80;;;4.25;;
31306;SDS011;17935;51.120;13.132;2023-03-25T02:09:10;14.85;;;4.72;;
31306;SDS011;17935;51.120;13.132;2023-03-25T02:11:37;9.25;;;4.30;;
31306;SDS011;17935;51.120;13.132;2023-03-25T02:14:05;9.95;;;5.07;;
31306;SDS011;17935;51.120;13.132;2023-03-25T02:21:58;11.25;;;5.00;;
31306;SDS011;17935;51.120;13.132;2023-03-25T02:27:21;8.23;;;4.35;;
31306;SDS011;17935;51.120;13.132;2023-03-25T02:40:02;7.88;;;4.38;;
31306;SDS011;17935;51.120;13.132;2023-03-25T02:47:44;9.70;;;5.40;;
31306;SDS011;17935;51.120;13.132;2023-03-25T02:50:21;5.88;;;4.50;;
31306;SDS011;17935;51.120;13.132;2023-03-25T02:52:50;11.75;;;5.22;;
31306;SDS011;17935;51.120;13.132;2023-03-25T02:55:17;11.30;;;4.57;;
31306;SDS011;17935;51.120;13.132;2023-03-25T02:57:45;11.77;;;5.05;;
31306;SDS011;17935;51.120;13.132;2023-03-25T03:00:12;11.63;;;5.50;;
31306;SDS011;17935;51.120;13.132;2023-03-25T03:02:43;8.15;;;4.60;;
31306;SDS011;17935;51.120;13.132;2023-03-25T03:05:20;7.90;;;4.68;;
31306;SDS011;17935;51.120;13.132;2023-03-25T03:07:46;7.60;;;4.15;;
31306;SDS011;17935;51.120;13.132;2023-03-25T03:10:19;5.80;;;3.78;;
31306;SDS011;17935;51.120;13.132;2023-03-25T03:13:03;8.65;;;3.80;;
31306;SDS011;17935;51.120;13.132;2023-03-25T03:15:39;4.38;;;3.47;;
31306;SDS011;17935;51.120;13.132;2023-03-25T03:18:13;4.10;;;2.88;;
31306;SDS011;17935;51.120;13.132;2023-03-25T03:20:43;5.50;;;3.00;;
31306;SDS011;17935;51.120;13.132;2023-03-25T03:25:49;3.72;;;2.63;;
31306;SDS011;17935;51.120;13.132;2023-03-25T03:28:22;7.47;;;2.45;;
31306;SDS011;17935;51.120;13.132;2023-03-25T03:30:53;5.57;;;2.38;;
31306;SDS011;17935;51.120;13.132;2023-03-25T03:35:52;6.25;;;2.17;;
31306;SDS011;17935;51.120;13.132;2023-03-25T03:38:21;4.20;;;2.13;;
31306;SDS011;17935;51.120;13.132;2023-03-25T03:40:49;5.35;;;1.85;;
31306;SDS011;17935;51.120;13.132;2023-03-25T03:43:22;9.00;;;2.15;;
31306;SDS011;17935;51.120;13.132;2023-03-25T03:45:50;5.53;;;1.63;;
31306;SDS011;17935;51.120;13.132;2023-03-25T03:48:19;4.45;;;1.60;;
31306;SDS011;17935;51.120;13.132;2023-03-25T03:50:55;7.50;;;2.17;;
31306;SDS011;17935;51.120;13.132;2023-03-25T03:53:32;5.03;;;1.27;;
31306;SDS011;17935;51.120;13.132;2023-03-25T03:58:36;3.30;;;1.23;;
31306;SDS011;17935;51.120;13.132;2023-03-25T04:01:07;2.42;;;1.33;;
31306;SDS011;17935;51.120;13.132;2023-03-25T04:03:36;6.70;;;1.52;;
31306;SDS011;17935;51.120;13.132;2023-03-25T04:06:09;9.02;;;1.77;;
31306;SDS011;17935;51.120;13.132;2023-03-25T04:11:07;5.53;;;1.30;;
31306;SDS011;17935;51.120;13.132;2023-03-25T04:13:35;10.77;;;1.55;;
31306;SDS011;17935;51.120;13.132;2023-03-25T04:16:03;4.28;;;1.20;;
31306;SDS011;17935;51.120;13.132;2023-03-25T04:18:29;3.38;;;1.58;;
31306;SDS011;17935;51.120;13.132;2023-03-25T04:20:57;7.20;;;1.73;;
31306;SDS011;17935;51.120;13.132;2023-03-25T04:23:24;1.65;;;1.15;;
31306;SDS011;17935;51.120;13.132;2023-03-25T04:25:53;5.13;;;0.98;;
31306;SDS011;17935;51.120;13.132;2023-03-25T04:28:19;5.80;;;1.60;;
31306;SDS011;17935;51.120;13.132;2023-03-25T04:30:47;4.30;;;1.63;;
31306;SDS011;17935;51.120;13.132;2023-03-25T04:33:14;2.80;;;1.67;;
31306;SDS011;17935;51.120;13.132;2023-03-25T04:35:41;3.63;;;1.58;;
31306;SDS011;17935;51.120;13.132;2023-03-25T04:38:07;4.45;;;1.42;;
31306;SDS011;17935;51.120;13.132;2023-03-25T04:40:33;2.80;;;1.40;;
31306;SDS011;17935;51.120;13.132;2023-03-25T04:42:59;6.80;;;1.30;;
31306;SDS011;17935;51.120;13.132;2023-03-25T04:45:25;6.93;;;1.42;;
31306;SDS011;17935;51.120;13.132;2023-03-25T04:47:52;1.42;;;1.10;;
31306;SDS011;17935;51.120;13.132;2023-03-25T04:50:20;3.28;;;1.08;;
31306;SDS011;17935;51.120;13.132;2023-03-25T04:52:46;1.83;;;0.98;;
31306;SDS011;17935;51.120;13.132;2023-03-25T04:55:13;1.10;;;1.00;;
31306;SDS011;17935;51.120;13.132;2023-03-25T04:57:42;3.10;;;0.80;;
31306;SDS011;17935;51.120;13.132;2023-03-25T05:00:08;1.80;;;0.82;;
31306;SDS011;17935;51.120;13.132;2023-03-25T05:02:35;1.02;;;0.80;;
31306;SDS011;17935;51.120;13.132;2023-03-25T05:05:02;3.28;;;0.90;;
31306;SDS011;17935;51.120;13.132;2023-03-25T05:07:28;1.27;;;0.70;;
31306;SDS011;17935;51.120;13.132;2023-03-25T05:09:54;0.60;;;0.60;;
31306;SDS011;17935;51.120;13.132;2023-03-25T05:12:24;0.93;;;0.80;;
31306;SDS011;17935;51.120;13.132;2023-03-25T05:14:50;4.78;;;0.80;;
31306;SDS011;17935;51.120;13.132;2023-03-25T05:17:15;1.00;;;0.70;;
31306;SDS011;17935;51.120;13.132;2023-03-25T05:19:41;3.10;;;0.90;;
31306;SDS011;17935;51.120;13.132;2023-03-25T05:22:08;4.13;;;0.60;;
31306;SDS011;17935;51.120;13.132;2023-03-25T05:24:34;3.47;;;1.25;;
31306;SDS011;17935;51.120;13.132;2023-03-25T05:27:01;5.43;;;0.90;;
31306;SDS011;17935;51.120;13.132;2023-03-25T05:29:27;0.85;;;0.80;;
31306;SDS011;17935;51.120;13.132;2023-03-25T05:31:57;1.58;;;0.50;;
31306;SDS011;17935;51.120;13.132;2023-03-25T05:34:23;1.80;;;0.80;;
31306;SDS011;17935;51.120;13.132;2023-03-25T05:36:49;2.15;;;0.90;;
31306;SDS011;17935;51.120;13.132;2023-03-25T05:39:15;1.70;;;0.70;;
31306;SDS011;17935;51.120;13.132;2023-03-25T05:41:41;2.40;;;0.90;;
31306;SDS011;17935;51.120;13.132;2023-03-25T05:44:09;2.10;;;0.90;;
31306;SDS011;17935;51.120;13.132;2023-03-25T05:46:38;1.70;;;0.70;;
31306;SDS011;17935;51.120;13.132;2023-03-25T05:49:04;0.75;;;0.75;;
31306;SDS011;17935;51.120;13.132;2023-03-25T05:51:31;1.80;;;0.88;;
31306;SDS011;17935;51.120;13.132;2023-03-25T05:53:58;5.68;;;0.80;;
31306;SDS011;17935;51.120;13.132;2023-03-25T05:56:24;1.65;;;0.60;;
31306;SDS011;17935;51.120;13.132;2023-03-25T05:58:50;2.65;;;0.90;;
31306;SDS011;17935;51.120;13.132;2023-03-25T06:01:17;3.60;;;0.75;;
31306;SDS011;17935;51.120;13.132;2023-03-25T06:03:44;1.95;;;0.95;;
31306;SDS011;17935;51.120;13.132;2023-03-25T06:06:10;2.03;;;0.73;;
31306;SDS011;17935;51.120;13.132;2023-03-25T06:08:42;1.90;;;1.00;;
31306;SDS011;17935;51.120;13.132;2023-03-25T06:11:08;0.65;;;0.65;;
31306;SDS011;17935;51.120;13.132;2023-03-25T06:13:37;3.35;;;0.80;;
31306;SDS011;17935;51.120;13.132;2023-03-25T06:16:04;6.40;;;1.13;;
31306;SDS011;17935;51.120;13.132;2023-03-25T06:18:34;0.68;;;0.60;;
31306;SDS011;17935;51.120;13.132;2023-03-25T06:21:01;1.00;;;0.68;;
31306;SDS011;17935;51.120;13.132;2023-03-25T06:23:27;1.27;;;0.80;;
31306;SDS011;17935;51.120;13.132;2023-03-25T06:25:53;1.77;;;0.70;;
31306;SDS011;17935;51.120;13.132;2023-03-25T06:28:19;3.03;;;0.63;;
31306;SDS011;17935;51.120;13.132;2023-03-25T06:30:47;1.67;;;1.13;;
31306;SDS011;17935;51.120;13.132;2023-03-25T06:33:13;1.27;;;0.60;;
31306;SDS011;17935;51.120;13.132;2023-03-25T06:35:42;2.17;;;1.00;;
31306;SDS011;17935;51.120;13.132;2023-03-25T06:38:11;1.88;;;0.90;;
31306;SDS011;17935;51.120;13.132;2023-03-25T06:40:37;3.95;;;0.85;;
31306;SDS011;17935;51.120;13.132;2023-03-25T06:43:04;3.00;;;0.68;;
31306;SDS011;17935;51.120;13.132;2023-03-25T06:45:31;1.45;;;0.80;;
31306;SDS011;17935;51.120;13.132;2023-03-25T06:47:57;3.08;;;0.90;;
31306;SDS011;17935;51.120;13.132;2023-03-25T06:50:23;1.08;;;0.80;;
31306;SDS011;17935;51.120;13.132;2023-03-25T06:52:49;2.92;;;0.80;;
31306;SDS011;17935;51.120;13.132;2023-03-25T06:55:15;1.60;;;0.80;;
31306;SDS011;17935;51.120;13.132;2023-03-25T06:57:41;4.70;;;1.20;;
31306;SDS011;17935;51.120;13.132;2023-03-25T07:00:07;1.80;;;0.82;;
31306;SDS011;17935;51.120;13.132;2023-03-25T07:02:35;3.00;;;0.90;;
31306;SDS011;17935;51.120;13.132;2023-03-25T07:05:01;2.65;;;1.25;;
31306;SDS011;17935;51.120;13.132;2023-03-25T07:07:27;3.20;;;1.10;;
31306;SDS011;17935;51.120;13.132;2023-03-25T07:09:53;3.03;;;1.17;;
31306;SDS011;17935;51.120;13.132;2023-03-25T07:12:23;3.15;;;1.02;;
31306;SDS011;17935;51.120;13.132;2023-03-25T07:14:50;0.80;;;0.80;;
31306;SDS011;17935;51.120;13.132;2023-03-25T07:17:16;2.95;;;1.00;;
31306;SDS011;17935;51.120;13.132;2023-03-25T07:19:42;7.05;;;1.20;;
31306;SDS011;17935;51.120;13.132;2023-03-25T07:22:08;3.20;;;0.73;;
31306;SDS011;17935;51.120;13.132;2023-03-25T07:24:34;1.30;;;0.95;;
31306;SDS011;17935;51.120;13.132;2023-03-25T07:27:00;4.13;;;1.20;;
31306;SDS011;17935;51.120;13.132;2023-03-25T07:29:25;1.75;;;1.00;;
31306;SDS011;17935;51.120;13.132;2023-03-25T07:31:51;4.63;;;1.35;;
31306;SDS011;17935;51.120;13.132;2023-03-25T07:34:18;4.70;;;1.30;;
31306;SDS011;17935;51.120;13.132;2023-03-25T07:36:43;3.20;;;1.15;;
31306;SDS011;17935;51.120;13.132;2023-03-25T07:39:09;4.25;;;1.05;;
31306;SDS011;17935;51.120;13.132;2023-03-25T07:41:35;6.90;;;1.00;;
31306;SDS011;17935;51.120;13.132;2023-03-25T07:44:01;2.58;;;0.77;;
31306;SDS011;17935;51.120;13.132;2023-03-25T07:46:27;1.73;;;0.90;;
31306;SDS011;17935;51.120;13.132;2023-03-25T07:48:53;6.68;;;1.35;;
31306;SDS011;17935;51.120;13.132;2023-03-25T07:51:19;4.00;;;1.20;;
31306;SDS011;17935;51.120;13.132;2023-03-25T07:53:45;6.82;;;2.20;;
31306;SDS011;17935;51.120;13.132;2023-03-25T07:56:11;5.57;;;0.98;;
31306;SDS011;17935;51.120;13.132;2023-03-25T07:58:37;4.13;;;1.02;;
31306;SDS011;17935;51.120;13.132;2023-03-25T08:01:03;4.10;;;1.27;;
31306;SDS011;17935;51.120;13.132;2023-03-25T08:03:30;6.35;;;1.33;;
31306;SDS011;17935;51.120;13.132;2023-03-25T08:05:59;3.92;;;1.10;;
31306;SDS011;17935;51.120;13.132;2023-03-25T08:08:25;5.68;;;1.55;;
31306;SDS011;17935;51.120;13.132;2023-03-25T08:10:53;4.00;;;1.25;;
31306;SDS011;17935;51.120;13.132;2023-03-25T08:13:19;3.22;;;1.45;;
31306;SDS011;17935;51.120;13.132;2023-03-25T08:15:45;6.40;;;1.55;;
31306;SDS011;17935;51.120;13.132;2023-03-25T08:18:11;5.05;;;1.67;;
31306;SDS011;17935;51.120;13.132;2023-03-25T08:20:37;3.75;;;1.40;;
31306;SDS011;17935;51.120;13.132;2023-03-25T08:23:03;3.22;;;1.50;;
31306;SDS011;17935;51.120;13.132;2023-03-25T08:25:34;6.10;;;1.80;;
31306;SDS011;17935;51.120;13.132;2023-03-25T08:28:00;3.80;;;1.20;;
31306;SDS011;17935;51.120;13.132;2023-03-25T08:30:26;2.72;;;1.33;;
31306;SDS011;17935;51.120;13.132;2023-03-25T08:32:52;3.88;;;1.55;;
31306;SDS011;17935;51.120;13.132;2023-03-25T08:35:19;1.08;;;0.98;;
31306;SDS011;17935;51.120;13.132;2023-03-25T08:37:45;6.82;;;1.30;;
31306;SDS011;17935;51.120;13.132;2023-03-25T08:40:11;3.08;;;1.20;;
31306;SDS011;17935;51.120;13.132;2023-03-25T08:42:38;4.00;;;1.42;;
31306;SDS011;17935;51.120;13.132;2023-03-25T08:45:05;2.95;;;1.52;;
31306;SDS011;17935;51.120;13.132;2023-03-25T08:47:31;1.33;;;0.90;;
31306;SDS011;17935;51.120;13.132;2023-03-25T08:49:57;5.38;;;1.10;;
31306;SDS011;17935;51.120;13.132;2023-03-25T08:52:23;1.45;;;0.98;;
31306;SDS011;17935;51.120;13.132;2023-03-25T08:54:49;2.40;;;1.27;;
31306;SDS011;17935;51.120;13.132;2023-03-25T08:57:15;1.27;;;1.00;;
31306;SDS011;17935;51.120;13.132;2023-03-25T08:59:41;3.03;;;1.23;;
31306;SDS011;17935;51.120;13.132;2023-03-25T09:02:08;2.92;;;1.42;;
31306;SDS011;17935;51.120;13.132;2023-03-25T09:04:35;2.38;;;1.30;;
31306;SDS011;17935;51.120;13.132;2023-03-25T09:07:02;2.05;;;1.10;;
31306;SDS011;17935;51.120;13.132;2023-03-25T09:09:28;1.88;;;1.10;;
31306;SDS011;17935;51.120;13.132;2023-03-25T09:11:54;1.33;;;0.80;;
31306;SDS011;17935;51.120;13.132;2023-03-25T09:14:20;1.83;;;1.08;;
31306;SDS011;17935;51.120;13.132;2023-03-25T09:16:46;2.88;;;1.67;;
31306;SDS011;17935;51.120;13.132;2023-03-25T09:19:12;2.88;;;1.38;;
31306;SDS011;17935;51.120;13.132;2023-03-25T09:21:38;2.35;;;1.40;;
31306;SDS011;17935;51.120;13.132;2023-03-25T09:24:04;2.30;;;1.30;;
31306;SDS011;17935;51.120;13.132;2023-03-25T09:26:32;1.30;;;0.95;;
31306;SDS011;17935;51.120;13.132;2023-03-25T09:28:58;1.20;;;0.90;;
31306;SDS011;17935;51.120;13.132;2023-03-25T09:31:24;1.90;;;0.80;;
31306;SDS011;17935;51.120;13.132;2023-03-25T09:33:51;1.25;;;1.00;;
31306;SDS011;17935;51.120;13.132;2023-03-25T09:36:17;1.48;;;0.80;;
31306;SDS011;17935;51.120;13.132;2023-03-25T09:38:42;0.70;;;0.60;;
31306;SDS011;17935;51.120;13.132;2023-03-25T09:41:18;1.63;;;0.85;;
31306;SDS011;17935;51.120;13.132;2023-03-25T09:43:50;2.33;;;0.73;;
31306;SDS011;17935;51.120;13.132;2023-03-25T09:46:20;2.00;;;0.60;;
31306;SDS011;17935;51.120;13.132;2023-03-25T09:48:46;1.67;;;0.85;;
31306;SDS011;17935;51.120;13.132;2023-03-25T09:51:14;3.22;;;0.93;;
31306;SDS011;17935;51.120;13.132;2023-03-25T09:53:45;2.67;;;0.70;;
31306;SDS011;17935;51.120;13.132;2023-03-25T09:56:14;1.55;;;0.68;;
31306;SDS011;17935;51.120;13.132;2023-03-25T09:58:45;4.05;;;0.80;;
31306;SDS011;17935;51.120;13.132;2023-03-25T10:06:22;2.53;;;0.88;;
31306;SDS011;17935;51.120;13.132;2023-03-25T10:16:44;3.88;;;1.10;;
31306;SDS011;17935;51.120;13.132;2023-03-25T10:21:52;0.88;;;0.88;;
31306;SDS011;17935;51.120;13.132;2023-03-25T10:24:28;3.00;;;1.40;;
31306;SDS011;17935;51.120;13.132;2023-03-25T10:27:03;3.63;;;1.10;;
31306;SDS011;17935;51.120;13.132;2023-03-25T10:29:35;3.47;;;1.02;;
31306;SDS011;17935;51.120;13.132;2023-03-25T10:32:13;1.10;;;0.90;;
31306;SDS011;17935;51.120;13.132;2023-03-25T10:34:50;1.40;;;1.02;;
31306;SDS011;17935;51.120;13.132;2023-03-25T10:37:30;2.97;;;1.33;;
31306;SDS011;17935;51.120;13.132;2023-03-25T10:39:59;3.60;;;1.30;;
31306;SDS011;17935;51.120;13.132;2023-03-25T10:42:34;2.22;;;0.90;;
31306;SDS011;17935;51.120;13.132;2023-03-25T10:45:02;2.22;;;0.73;;
31306;SDS011;17935;51.120;13.132;2023-03-25T10:47:30;3.78;;;0.90;;
31306;SDS011;17935;51.120;13.132;2023-03-25T10:49:57;2.22;;;0.80;;
31306;SDS011;17935;51.120;13.132;2023-03-25T10:52:24;1.88;;;0.80;;
31306;SDS011;17935;51.120;13.132;2023-03-25T10:54:53;3.90;;;0.95;;
31306;SDS011;17935;51.120;13.132;2023-03-25T10:57:27;1.08;;;0.88;;
31306;SDS011;17935;51.120;13.132;2023-03-25T10:59:57;0.90;;;0.90;;
31306;SDS011;17935;51.120;13.132;2023-03-25T11:02:25;0.77;;;0.75;;
31306;SDS011;17935;51.120;13.132;2023-03-25T11:04:54;2.38;;;0.70;;
31306;SDS011;17935;51.120;13.132;2023-03-25T11:07:21;0.65;;;0.50;;
31306;SDS011;17935;51.120;13.132;2023-03-25T11:09:48;0.70;;;0.70;;
31306;SDS011;17935;51.120;13.132;2023-03-25T11:12:18;1.00;;;0.52;;
31306;SDS011;17935;51.120;13.132;2023-03-25T11:14:45;0.75;;;0.50;;
31306;SDS011;17935;51.120;13.132;2023-03-25T11:19:59;2.10;;;0.68;;
31306;SDS011;17935;51.120;13.132;2023-03-25T11:22:28;0.73;;;0.63;;
31306;SDS011;17935;51.120;13.132;2023-03-25T11:24:57;2.53;;;0.80;;
31306;SDS011;17935;51.120;13.132;2023-03-25T11:27:24;0.93;;;0.70;;
31306;SDS011;17935;51.120;13.132;2023-03-25T11:29:52;4.15;;;0.80;;
31306;SDS011;17935;51.120;13.132;2023-03-25T11:32:23;0.77;;;0.60;;
31306;SDS011;17935;51.120;13.132;2023-03-25T11:34:55;1.95;;;1.25;;
31306;SDS011;17935;51.120;13.132;2023-03-25T11:37:22;6.38;;;2.38;;
31306;SDS011;17935;51.120;13.132;2023-03-25T11:39:50;0.82;;;0.57;;
31306;SDS011;17935;51.120;13.132;2023-03-25T11:42:22;4.03;;;0.90;;
31306;SDS011;17935;51.120;13.132;2023-03-25T11:44:52;1.35;;;0.70;;
31306;SDS011;17935;51.120;13.132;2023-03-25T11:47:24;1.95;;;0.90;;
31306;SDS011;17935;51.120;13.132;2023-03-25T11:49:51;1.88;;;1.00;;
31306;SDS011;17935;51.120;13.132;2023-03-25T11:52:19;3.53;;;0.90;;
31306;SDS011;17935;51.120;13.132;2023-03-25T11:54:46;0.93;;;0.80;;
31306;SDS011;17935;51.120;13.132;2023-03-25T11:57:16;3.17;;;1.00;;
31306;SDS011;17935;51.120;13.132;2023-03-25T11:59:45;0.70;;;0.70;;
31306;SDS011;17935;51.120;13.132;2023-03-25T12:02:22;2.80;;;0.95;;
31306;SDS011;17935;51.120;13.132;2023-03-25T12:04:55;2.85;;;0.90;;
31306;SDS011;17935;51.120;13.132;2023-03-25T12:07:21;1.13;;;0.90;;
31306;SDS011;17935;51.120;13.132;2023-03-25T12:09:55;2.17;;;0.85;;
31306;SDS011;17935;51.120;13.132;2023-03-25T12:12:29;4.10;;;1.38;;
31306;SDS011;17935;51.120;13.132;2023-03-25T12:20:28;1.33;;;1.02;;
31306;SDS011;17935;51.120;13.132;2023-03-25T12:22:59;3.42;;;1.20;;
31306;SDS011;17935;51.120;13.132;2023-03-25T12:28:17;2.60;;;0.70;;
31306;SDS011;17935;51.120;13.132;2023-03-25T12:35:40;1.13;;;0.98;;
31306;SDS011;17935;51.120;13.132;2023-03-25T12:48:56;1.05;;;0.85;;
31306;SDS011;17935;51.120;13.132;2023-03-25T12:51:26;1.85;;;0.90;;
31306;SDS011;17935;51.120;13.132;2023-03-25T12:54:02;1.75;;;1.00;;
31306;SDS011;17935;51.120;13.132;2023-03-25T12:56:42;3.28;;;1.20;;
31306;SDS011;17935;51.120;13.132;2023-03-25T12:59:25;2.13;;;0.90;;
31306;SDS011;17935;51.120;13.132;2023-03-25T13:01:57;2.28;;;0.80;;
31306;SDS011;17935;51.120;13.132;2023-03-25T13:06:58;1.00;;;0.77;;
31306;SDS011;17935;51.120;13.132;2023-03-25T13:14:23;2.33;;;1.02;;
31306;SDS011;17935;51.120;13.132;2023-03-25T13:16:51;2.00;;;0.90;;
31306;SDS011;17935;51.120;13.132;2023-03-25T13:19:21;2.20;;;0.85;;
31306;SDS011;17935;51.120;13.132;2023-03-25T13:22:02;5.90;;;1.15;;
31306;SDS011;17935;51.120;13.132;2023-03-25T13:24:34;3.13;;;1.00;;
31306;SDS011;17935;51.120;13.132;2023-03-25T13:27:02;1.85;;;0.85;;
31306;SDS011;17935;51.120;13.132;2023-03-25T13:31:56;4.13;;;1.33;;
31306;SDS011;17935;51.120;13.132;2023-03-25T13:34:29;2.20;;;1.27;;
31306;SDS011;17935;51.120;13.132;2023-03-25T13:42:12;2.67;;;1.10;;
31306;SDS011;17935;51.120;13.132;2023-03-25T13:44:40;3.55;;;1.05;;
31306;SDS011;17935;51.120;13.132;2023-03-25T13:49:38;3.30;;;1.20;;
31306;SDS011;17935;51.120;13.132;2023-03-25T13:52:06;5.93;;;1.40;;
31306;SDS011;17935;51.120;13.132;2023-03-25T14:07:59;0.95;;;0.88;;
31306;SDS011;17935;51.120;13.132;2023-03-25T14:13:00;2.03;;;0.50;;
31306;SDS011;17935;51.120;13.132;2023-03-25T14:15:28;0.63;;;0.52;;
31306;SDS011;17935;51.120;13.132;2023-03-25T14:17:56;2.80;;;0.63;;
31306;SDS011;17935;51.120;13.132;2023-03-25T14:20:27;1.38;;;0.75;;
31306;SDS011;17935;51.120;13.132;2023-03-25T14:22:58;3.08;;;0.70;;
31306;SDS011;17935;51.120;13.132;2023-03-25T14:25:35;0.50;;;0.50;;
31306;SDS011;17935;51.120;13.132;2023-03-25T14:28:02;2.42;;;0.63;;
31306;SDS011;17935;51.120;13.132;2023-03-25T14:30:29;0.60;;;0.60;;
31306;SDS011;17935;51.120;13.132;2023-03-25T14:32:56;0.40;;;0.40;;
31306;SDS011;17935;51.120;13.132;2023-03-25T14:43:24;0.75;;;0.75;;
31306;SDS011;17935;51.120;13.132;2023-03-25T14:45:52;1.25;;;0.73;;
31306;SDS011;17935;51.120;13.132;2023-03-25T14:48:24;1.08;;;0.90;;
31306;SDS011;17935;51.120;13.132;2023-03-25T14:51:04;0.63;;;0.63;;
31306;SDS011;17935;51.120;13.132;2023-03-25T14:53:31;2.72;;;1.20;;
31306;SDS011;17935;51.120;13.132;2023-03-25T14:55:58;0.93;;;0.70;;
31306;SDS011;17935;51.120;13.132;2023-03-25T14:58:26;0.82;;;0.80;;
31306;SDS011;17935;51.120;13.132;2023-03-25T15:01:03;0.82;;;0.82;;
31306;SDS011;17935;51.120;13.132;2023-03-25T15:03:34;2.00;;;0.80;;
31306;SDS011;17935;51.120;13.132;2023-03-25T15:06:01;2.03;;;0.90;;
31306;SDS011;17935;51.120;13.132;2023-03-25T15:08:30;3.38;;;0.93;;
31306;SDS011;17935;51.120;13.132;2023-03-25T15:11:02;1.55;;;0.90;;
31306;SDS011;17935;51.120;13.132;2023-03-25T15:13:33;2.58;;;0.88;;
31306;SDS011;17935;51.120;13.132;2023-03-25T15:16:04;1.05;;;0.85;;
31306;SDS011;17935;51.120;13.132;2023-03-25T15:24:29;4.75;;;1.10;;
31306;SDS011;17935;51.120;13.132;2023-03-25T15:26:33;1.65;;;0.90;;
31306;SDS011;17935;51.120;13.132;2023-03-25T15:32:04;1.38;;;1.27;;
31306;SDS011;17935;51.120;13.132;2023-03-25T15:34:44;2.80;;;1.00;;
31306;SDS011;17935;51.120;13.132;2023-03-25T15:37:20;4.53;;;2.08;;
31306;SDS011;17935;51.120;13.132;2023-03-25T15:40:03;2.33;;;1.00;;
31306;SDS011;17935;51.120;13.132;2023-03-25T15:50:10;3.22;;;1.13;;
31306;SDS011;17935;51.120;13.132;2023-03-25T15:55:25;5.47;;;1.00;;
31306;SDS011;17935;51.120;13.132;2023-03-25T15:57:55;2.45;;;0.90;;
31306;SDS011;17935;51.120;13.132;2023-03-25T16:00:28;2.33;;;0.70;;
31306;SDS011;17935;51.120;13.132;2023-03-25T16:05:31;2.60;;;1.15;;
31306;SDS011;17935;51.120;13.132;2023-03-25T16:07:58;3.60;;;1.27;;
31306;SDS011;17935;51.120;13.132;2023-03-25T16:10:31;1.45;;;1.08;;
31306;SDS011;17935;51.120;13.132;2023-03-25T16:13:04;2.15;;;0.80;;
31306;SDS011;17935;51.120;13.132;2023-03-25T16:15:31;2.55;;;1.30;;
31306;SDS011;17935;51.120;13.132;2023-03-25T16:17:57;4.30;;;1.25;;
31306;SDS011;17935;51.120;13.132;2023-03-25T16:20:24;5.30;;;1.10;;
31306;SDS011;17935;51.120;13.132;2023-03-25T16:22:52;1.73;;;1.10;;
31306;SDS011;17935;51.120;13.132;2023-03-25T16:25:20;3.40;;;1.00;;
31306;SDS011;17935;51.120;13.132;2023-03-25T16:27:51;3.17;;;1.38;;
31306;SDS011;17935;51.120;13.132;2023-03-25T16:30:18;3.92;;;1.50;;
31306;SDS011;17935;51.120;13.132;2023-03-25T16:32:45;3.92;;;1.65;;
31306;SDS011;17935;51.120;13.132;2023-03-25T16:35:22;3.33;;;1.30;;
31306;SDS011;17935;51.120;13.132;2023-03-25T16:37:49;3.17;;;1.20;;
31306;SDS011;17935;51.120;13.132;2023-03-25T16:40:18;1.02;;;0.93;;
31306;SDS011;17935;51.120;13.132;2023-03-25T16:42:46;7.13;;;1.77;;
31306;SDS011;17935;51.120;13.132;2023-03-25T16:45:13;6.13;;;1.40;;
31306;SDS011;17935;51.120;13.132;2023-03-25T16:47:39;2.67;;;1.35;;
31306;SDS011;17935;51.120;13.132;2023-03-25T16:50:05;2.45;;;1.10;;
31306;SDS011;17935;51.120;13.132;2023-03-25T16:52:32;2.30;;;1.50;;
31306;SDS011;17935;51.120;13.132;2023-03-25T16:57:25;7.05;;;1.38;;
31306;SDS011;17935;51.120;13.132;2023-03-25T16:59:53;3.13;;;1.50;;
31306;SDS011;17935;51.120;13.132;2023-03-25T17:02:27;5.55;;;1.73;;